Ojai, California
Current Conditions -  °F | °C
As of 4:48 PM on Saturday 25 Oct 2014 (Local Time) from KOXR Reporting Station
Broken Clouds Broken Clouds  
Wind Chill: 70°   Ceiling: 1100
Heat Index: 70°   Visibility: 10mi
Dew Point: 63°   Wind: 20mph
Humidity: 78%   Direction: 290°WNW
Pressure: 30"   Gusts: NA
Location:  34.44°N, 119.24°W
Report Text: KOXR 252348Z AUTO 29017KT 10SM BKN011 21/17 A3000 RMK AO2 PK WND 24028/2332 TSNO
Loading
Personal Weather Stations






























Interactive Weather Map New forecast layout! Learn more

10-Day Weather Forecast

Advertisements
Track Severe Weather on mobile